createdAt,value
2022-10-04T00:00:49.932Z,12.74
2022-10-04T00:01:49.968Z,12.72
2022-10-04T00:02:49.987Z,12.71
2022-10-04T00:05:49.959Z,12.72
2022-10-04T00:06:49.925Z,12.71
2022-10-04T00:07:49.956Z,12.70
2022-10-04T00:08:49.909Z,12.68
2022-10-04T00:09:49.938Z,12.67
2022-10-04T00:10:50.013Z,12.66
2022-10-04T00:12:49.962Z,12.65
2022-10-04T00:13:49.928Z,12.66
2022-10-04T00:14:49.953Z,12.64
2022-10-04T00:20:49.992Z,12.63
2022-10-04T00:21:49.970Z,12.62
2022-10-04T00:22:49.988Z,12.60
2022-10-04T00:23:49.976Z,12.59
2022-10-04T00:24:49.972Z,12.58
2022-10-04T00:25:50.008Z,12.57
2022-10-04T00:26:50.006Z,12.55
2022-10-04T00:27:50.038Z,12.53
2022-10-04T00:29:49.993Z,12.55
2022-10-04T00:30:49.983Z,12.54
2022-10-04T00:32:50.024Z,12.52
2022-10-04T00:33:50.015Z,12.51
2022-10-04T00:35:50.000Z,12.50
2022-10-04T00:37:49.998Z,12.48
2022-10-04T00:38:50.048Z,12.47
2022-10-04T00:39:49.995Z,12.46
2022-10-04T00:40:50.032Z,12.44
2022-10-04T00:41:50.028Z,12.43
2022-10-04T00:42:50.031Z,12.41
2022-10-04T00:43:50.042Z,12.39
2022-10-04T00:44:50.044Z,12.38
2022-10-04T00:45:50.134Z,12.36
2022-10-04T00:46:50.058Z,12.35
2022-10-04T00:47:50.044Z,12.34
2022-10-04T00:48:50.040Z,12.32
2022-10-04T00:52:50.068Z,12.31
2022-10-04T00:53:50.061Z,12.29
2022-10-04T00:54:50.043Z,12.27
2022-10-04T00:55:53.042Z,12.25
2022-10-04T00:56:50.070Z,12.26
2022-10-04T00:59:50.095Z,12.25
2022-10-04T01:00:50.117Z,12.24
2022-10-04T01:01:50.114Z,12.25
2022-10-04T01:02:50.089Z,12.27
2022-10-04T01:03:50.064Z,12.26
2022-10-04T01:04:50.069Z,12.22
2022-10-04T01:05:50.128Z,12.18
2022-10-04T01:06:50.081Z,12.16
2022-10-04T01:10:50.079Z,12.17
2022-10-04T01:11:50.129Z,12.19
2022-10-04T01:12:50.096Z,12.18
2022-10-04T01:15:50.161Z,12.16
2022-10-04T01:16:50.113Z,12.15
2022-10-04T01:17:50.129Z,12.14
2022-10-04T01:18:50.109Z,12.13
2022-10-04T01:19:50.100Z,12.14
2022-10-04T01:20:50.120Z,12.13
2022-10-04T01:22:50.132Z,12.14
2022-10-04T01:23:50.174Z,12.15
2022-10-04T01:25:50.138Z,12.16
2022-10-04T01:26:50.152Z,12.15
2022-10-04T01:28:50.134Z,12.13
2022-10-04T01:29:51.790Z,12.12
2022-10-04T01:31:50.231Z,12.11
2022-10-04T01:32:53.328Z,12.09
2022-10-04T01:33:50.131Z,12.08
2022-10-04T01:34:50.166Z,12.07
2022-10-04T01:35:50.182Z,12.06
2022-10-04T01:36:50.166Z,12.05
2022-10-04T01:37:50.146Z,12.02
2022-10-04T01:39:50.197Z,12.01
2022-10-04T01:40:50.174Z,12.00
2022-10-04T01:41:50.244Z,11.99
2022-10-04T01:43:50.191Z,11.97
2022-10-04T01:44:50.178Z,11.95
2022-10-04T01:45:50.231Z,11.94
2022-10-04T01:46:50.253Z,11.93
2022-10-04T01:48:51.644Z,11.95
2022-10-04T01:49:50.199Z,11.96
2022-10-04T01:51:50.200Z,11.98
2022-10-04T01:54:50.248Z,11.97
2022-10-04T01:55:50.239Z,11.96
2022-10-04T01:56:50.205Z,11.95
2022-10-04T01:58:50.222Z,11.94
2022-10-04T02:01:50.228Z,11.93
2022-10-04T02:02:50.213Z,11.92
2022-10-04T02:03:50.221Z,11.93
2022-10-04T02:04:50.254Z,11.94
2022-10-04T02:08:50.242Z,11.96
2022-10-04T02:09:53.616Z,11.95
2022-10-04T02:11:50.283Z,11.93
2022-10-04T02:13:50.245Z,11.91
2022-10-04T02:14:50.277Z,11.90
2022-10-04T02:16:50.262Z,11.89
2022-10-04T02:17:50.230Z,11.87
2022-10-04T02:18:50.239Z,11.86
2022-10-04T02:19:50.237Z,11.85
2022-10-04T02:20:50.300Z,11.83
2022-10-04T02:22:50.298Z,11.82
2022-10-04T02:24:50.290Z,11.83
2022-10-04T02:26:50.324Z,11.84
2022-10-04T02:27:50.306Z,11.85
2022-10-04T02:30:50.384Z,11.83
2022-10-04T02:32:50.334Z,11.81
2022-10-04T02:33:50.290Z,11.82
2022-10-04T02:34:50.346Z,11.83
2022-10-04T02:35:50.300Z,11.84
2022-10-04T02:37:50.304Z,11.85
2022-10-04T02:38:50.337Z,11.86
2022-10-04T02:39:50.307Z,11.85
2022-10-04T02:40:50.321Z,11.83
2022-10-04T02:44:50.327Z,11.82
2022-10-04T02:45:50.332Z,11.81
2022-10-04T02:46:54.067Z,11.78
2022-10-04T02:48:50.333Z,11.79
2022-10-04T02:49:50.338Z,11.81
2022-10-04T02:51:50.365Z,11.77
2022-10-04T02:52:50.348Z,11.75
2022-10-04T02:54:50.357Z,11.74
2022-10-04T02:56:50.354Z,11.75
2022-10-04T02:59:50.403Z,11.73
2022-10-04T03:00:50.468Z,11.69
2022-10-04T03:01:50.413Z,11.61
2022-10-04T03:02:50.428Z,11.54
2022-10-04T03:03:50.355Z,11.51
2022-10-04T03:05:50.418Z,11.53
2022-10-04T03:06:50.374Z,11.54
2022-10-04T03:10:50.408Z,11.52
2022-10-04T03:11:50.417Z,11.51
2022-10-04T03:16:50.407Z,11.52
2022-10-04T03:17:50.432Z,11.51
2022-10-04T03:18:50.432Z,11.44
2022-10-04T03:19:50.410Z,11.37
2022-10-04T03:20:50.432Z,11.36
2022-10-04T03:21:50.412Z,11.39
2022-10-04T03:22:50.421Z,11.41
2022-10-04T03:23:54.463Z,11.44
2022-10-04T03:24:50.444Z,11.43
2022-10-04T03:26:50.421Z,11.42
2022-10-04T03:27:50.478Z,11.43
2022-10-04T03:28:50.457Z,11.45
2022-10-04T03:32:50.476Z,11.46
2022-10-04T03:33:50.444Z,11.47
2022-10-04T03:34:50.453Z,11.43
2022-10-04T03:36:50.453Z,11.42
2022-10-04T03:37:50.454Z,11.40
2022-10-04T03:38:50.494Z,11.38
2022-10-04T03:39:50.440Z,11.39
2022-10-04T03:40:50.449Z,11.40
2022-10-04T03:41:50.489Z,11.42
2022-10-04T03:44:50.499Z,11.43
2022-10-04T03:46:50.503Z,11.44
2022-10-04T03:49:51.159Z,11.46
2022-10-04T03:50:50.506Z,11.50
2022-10-04T03:51:50.481Z,11.54
2022-10-04T03:52:50.506Z,11.57
2022-10-04T03:53:50.494Z,11.60
2022-10-04T03:55:50.492Z,11.61
2022-10-04T03:56:50.544Z,11.62
2022-10-04T03:57:50.521Z,11.59
2022-10-04T03:58:50.511Z,11.57
2022-10-04T03:59:50.496Z,11.54
2022-10-04T04:00:54.445Z,11.51
2022-10-04T04:01:50.564Z,11.49
2022-10-04T04:05:50.566Z,11.48
2022-10-04T04:06:50.534Z,11.46
2022-10-04T04:07:50.531Z,11.43
2022-10-04T04:08:50.531Z,11.40
2022-10-04T04:09:50.540Z,11.38
2022-10-04T04:10:50.548Z,11.36
2022-10-04T04:11:50.564Z,11.33
2022-10-04T04:12:50.558Z,11.32
2022-10-04T04:13:50.560Z,11.33
2022-10-04T04:14:50.560Z,11.31
2022-10-04T04:15:50.631Z,11.30
2022-10-04T04:17:50.611Z,11.29
2022-10-04T04:18:50.562Z,11.27
2022-10-04T04:20:50.535Z,11.26
2022-10-04T04:21:50.569Z,11.25
2022-10-04T04:22:50.568Z,11.24
2022-10-04T04:23:50.593Z,11.23
2022-10-04T04:24:50.581Z,11.20
2022-10-04T04:25:50.577Z,11.19
2022-10-04T04:26:50.561Z,11.17
2022-10-04T04:27:50.622Z,11.15
2022-10-04T04:30:50.627Z,11.17
2022-10-04T04:31:50.623Z,11.16
2022-10-04T04:35:50.607Z,11.14
2022-10-04T04:36:50.631Z,11.11
2022-10-04T04:40:50.617Z,11.12
2022-10-04T04:41:51.002Z,11.13
2022-10-04T04:43:50.652Z,11.14
2022-10-04T04:46:08.460Z,11.12
2022-10-04T04:46:50.668Z,11.11
2022-10-04T04:47:50.617Z,11.09
2022-10-04T04:48:50.617Z,11.08
2022-10-04T04:51:50.680Z,11.07
2022-10-04T04:52:50.656Z,11.06
2022-10-04T04:53:50.643Z,11.05
2022-10-04T04:54:50.639Z,11.06
2022-10-04T04:56:03.404Z,11.07
2022-10-04T04:56:50.636Z,11.08
2022-10-04T04:58:50.698Z,11.09
2022-10-04T04:59:50.667Z,11.10
2022-10-04T05:01:50.759Z,11.09
2022-10-04T05:04:50.688Z,11.10
2022-10-04T05:08:50.684Z,11.08
2022-10-04T05:09:50.735Z,11.07
2022-10-04T05:10:50.712Z,11.05
2022-10-04T05:11:50.707Z,11.03
2022-10-04T05:14:54.919Z,11.04
2022-10-04T05:15:50.708Z,11.06
2022-10-04T05:17:50.711Z,11.05
2022-10-04T05:18:50.705Z,11.04
2022-10-04T05:19:50.723Z,11.06
2022-10-04T05:21:50.744Z,11.07
2022-10-04T05:22:50.723Z,11.06
2022-10-04T05:23:50.717Z,11.08
2022-10-04T05:25:50.732Z,11.03
2022-10-04T05:26:50.733Z,10.94
2022-10-04T05:27:50.819Z,10.89
2022-10-04T05:28:50.781Z,10.86
2022-10-04T05:29:50.722Z,10.84
2022-10-04T05:30:50.752Z,10.82
2022-10-04T05:31:50.786Z,10.78
2022-10-04T05:32:50.858Z,10.76
2022-10-04T05:33:50.801Z,10.74
2022-10-04T05:34:50.760Z,10.73
2022-10-04T05:35:50.780Z,10.75
2022-10-04T05:36:50.776Z,10.77
2022-10-04T05:37:50.797Z,10.80
2022-10-04T05:38:50.823Z,10.84
2022-10-04T05:39:50.799Z,10.87
2022-10-04T05:40:50.813Z,10.90
2022-10-04T05:41:50.779Z,10.93
2022-10-04T05:42:50.800Z,10.92
2022-10-04T05:43:50.773Z,10.90
2022-10-04T05:44:50.842Z,10.87
2022-10-04T05:45:50.851Z,10.86
2022-10-04T05:46:50.771Z,10.87
2022-10-04T05:47:50.798Z,10.89
2022-10-04T05:48:50.778Z,10.93
2022-10-04T05:49:50.782Z,10.97
2022-10-04T05:50:50.818Z,11.00
2022-10-04T05:51:55.740Z,11.04
2022-10-04T05:52:50.822Z,11.06
2022-10-04T05:53:50.800Z,11.08
2022-10-04T05:54:50.806Z,11.10
2022-10-04T05:57:50.821Z,11.14
2022-10-04T05:58:50.810Z,11.17
2022-10-04T05:59:50.811Z,11.21
2022-10-04T06:00:50.907Z,11.24
2022-10-04T06:01:50.938Z,11.27
2022-10-04T06:02:50.883Z,11.31
2022-10-04T06:03:50.840Z,11.33
2022-10-04T06:04:50.829Z,11.36
2022-10-04T06:05:50.802Z,11.39
2022-10-04T06:06:50.813Z,11.42
2022-10-04T06:07:50.845Z,11.45
2022-10-04T06:08:50.871Z,11.46
2022-10-04T06:09:50.805Z,11.47
2022-10-04T06:10:50.819Z,11.50
2022-10-04T06:11:50.828Z,11.51
2022-10-04T06:12:50.833Z,11.53
2022-10-04T06:13:50.820Z,11.55
2022-10-04T06:14:50.867Z,11.56
2022-10-04T06:15:50.840Z,11.59
2022-10-04T06:16:50.901Z,11.60
2022-10-04T06:17:50.844Z,11.63
2022-10-04T06:18:50.859Z,11.64
2022-10-04T06:20:50.902Z,11.63
2022-10-04T06:22:50.875Z,11.65
2022-10-04T06:23:50.879Z,11.66
2022-10-04T06:24:50.865Z,11.67
2022-10-04T06:25:51.302Z,11.69
2022-10-04T06:26:50.873Z,11.70
2022-10-04T06:27:50.959Z,11.72
2022-10-04T06:28:50.890Z,11.73
2022-10-04T06:29:50.957Z,11.74
2022-10-04T06:30:50.973Z,11.75
2022-10-04T06:31:53.392Z,11.76
2022-10-04T06:32:50.881Z,11.77
2022-10-04T06:33:50.890Z,11.78
2022-10-04T06:34:50.895Z,11.79
2022-10-04T06:35:50.894Z,11.81
2022-10-04T06:36:50.910Z,11.83
2022-10-04T06:37:50.935Z,11.84
2022-10-04T06:38:50.913Z,11.86
2022-10-04T06:39:50.917Z,11.87
2022-10-04T06:41:50.917Z,11.88
2022-10-04T06:42:50.921Z,11.90
2022-10-04T06:43:50.945Z,11.92
2022-10-04T06:44:50.920Z,11.97
2022-10-04T06:45:50.948Z,12.00
2022-10-04T06:46:50.912Z,12.01
2022-10-04T06:48:50.985Z,12.03
2022-10-04T06:49:50.931Z,12.05
2022-10-04T06:50:50.943Z,12.08
2022-10-04T06:51:50.927Z,12.09
2022-10-04T06:52:50.957Z,12.11
2022-10-04T06:53:50.941Z,12.14
2022-10-04T06:54:50.998Z,12.15
2022-10-04T06:55:50.951Z,12.17
2022-10-04T06:56:50.982Z,12.19
2022-10-04T06:57:50.950Z,12.22
2022-10-04T06:58:50.974Z,12.25
2022-10-04T06:59:50.974Z,12.28
2022-10-04T07:00:51.043Z,12.32
2022-10-04T07:01:51.035Z,12.34
2022-10-04T07:02:51.345Z,12.35
2022-10-04T07:03:51.703Z,12.36
2022-10-04T07:05:07.687Z,12.38
2022-10-04T07:05:50.978Z,12.41
2022-10-04T07:06:51.024Z,12.46
2022-10-04T07:07:50.950Z,12.47
2022-10-04T07:08:50.984Z,12.48
2022-10-04T07:09:50.996Z,12.49
2022-10-04T07:10:50.970Z,12.48
2022-10-04T07:11:50.984Z,12.46
2022-10-04T07:12:51.019Z,12.44
2022-10-04T07:13:50.975Z,12.40
2022-10-04T07:14:51.002Z,12.38
2022-10-04T07:15:51.055Z,12.31
2022-10-04T07:16:51.016Z,12.26
2022-10-04T07:17:51.008Z,12.22
2022-10-04T07:18:51.037Z,12.17
2022-10-04T07:19:50.999Z,12.07
2022-10-04T07:20:51.012Z,12.00
2022-10-04T07:21:51.013Z,11.99
2022-10-04T07:22:51.014Z,12.01
2022-10-04T07:23:51.008Z,12.04
2022-10-04T07:24:51.066Z,12.06
2022-10-04T07:25:51.025Z,12.08
2022-10-04T07:26:51.016Z,12.10
2022-10-04T07:28:51.020Z,12.11
2022-10-04T07:29:51.030Z,12.12
2022-10-04T07:30:51.164Z,12.07
2022-10-04T07:31:51.028Z,12.13
2022-10-04T07:32:51.039Z,12.21
2022-10-04T07:33:51.040Z,12.30
2022-10-04T07:34:51.044Z,12.35
2022-10-04T07:35:51.054Z,12.42
2022-10-04T07:36:51.103Z,12.48
2022-10-04T07:37:51.062Z,12.55
2022-10-04T07:38:51.042Z,12.60
2022-10-04T07:39:51.577Z,12.65
2022-10-04T07:40:51.070Z,12.69
2022-10-04T07:41:51.082Z,12.77
2022-10-04T07:42:51.079Z,12.84
2022-10-04T07:43:51.049Z,12.90
2022-10-04T07:44:51.045Z,12.96
2022-10-04T07:45:51.153Z,13.00
2022-10-04T07:46:51.095Z,13.05
2022-10-04T07:47:51.062Z,13.09
2022-10-04T07:48:51.123Z,13.14
2022-10-04T07:49:51.095Z,13.20
2022-10-04T07:50:51.090Z,13.24
2022-10-04T07:51:51.103Z,13.29
2022-10-04T07:52:51.096Z,13.33
2022-10-04T07:53:51.118Z,13.38
2022-10-04T07:54:51.136Z,13.41
2022-10-04T07:55:51.111Z,13.43
2022-10-04T07:56:51.107Z,13.42
2022-10-04T07:58:51.103Z,13.45
2022-10-04T07:59:51.191Z,13.48
2022-10-04T08:02:51.353Z,13.49
2022-10-04T08:03:51.180Z,13.54
2022-10-04T08:04:51.130Z,13.56
2022-10-04T08:05:51.166Z,13.60
2022-10-04T08:06:51.144Z,13.67
2022-10-04T08:07:51.128Z,13.71
2022-10-04T08:08:51.119Z,13.75
2022-10-04T08:09:51.142Z,13.79
2022-10-04T08:10:54.224Z,13.83
2022-10-04T08:11:51.200Z,13.85
2022-10-04T08:12:51.134Z,13.87
2022-10-04T08:13:51.137Z,13.90
2022-10-04T08:14:51.183Z,13.91
2022-10-04T08:15:51.243Z,13.93
2022-10-04T08:16:51.872Z,13.97
2022-10-04T08:18:51.162Z,14.02
2022-10-04T08:19:51.154Z,14.05
2022-10-04T08:20:51.172Z,14.04
2022-10-04T08:21:51.170Z,14.03
2022-10-04T08:22:51.165Z,14.05
2022-10-04T08:23:51.190Z,14.02
2022-10-04T08:24:53.502Z,13.99
2022-10-04T08:25:51.168Z,13.98
2022-10-04T08:26:51.177Z,13.99
2022-10-04T08:27:51.414Z,14.01
2022-10-04T08:28:51.188Z,14.04
2022-10-04T08:29:51.167Z,14.09
2022-10-04T08:30:51.225Z,14.13
2022-10-04T08:31:51.189Z,14.16
2022-10-04T08:32:51.189Z,14.19
2022-10-04T08:33:51.228Z,14.21
2022-10-04T08:34:51.193Z,14.23
2022-10-04T08:35:51.204Z,14.25
2022-10-04T08:36:51.185Z,14.26
2022-10-04T08:37:51.210Z,14.25
2022-10-04T08:38:51.206Z,14.26
2022-10-04T08:39:51.226Z,14.27
2022-10-04T08:40:51.216Z,14.26
2022-10-04T08:41:51.220Z,14.28
2022-10-04T08:42:51.206Z,14.27
2022-10-04T08:43:51.225Z,14.26
2022-10-04T08:44:51.276Z,14.24
2022-10-04T08:46:51.309Z,14.19
2022-10-04T08:47:51.226Z,14.02
2022-10-04T08:48:51.238Z,14.01
2022-10-04T08:49:51.215Z,14.05
2022-10-04T08:50:51.286Z,14.11
2022-10-04T08:51:51.264Z,14.12
2022-10-04T08:52:51.235Z,14.24
2022-10-04T08:53:52.089Z,14.43
2022-10-04T08:54:51.231Z,14.94
2022-10-04T08:55:51.233Z,15.66
2022-10-04T08:56:51.311Z,15.87
2022-10-04T08:57:51.230Z,15.99
2022-10-04T08:58:51.273Z,16.06
2022-10-04T08:59:51.244Z,16.12
2022-10-04T09:00:51.229Z,16.16
2022-10-04T09:01:51.355Z,16.21
2022-10-04T09:02:51.383Z,16.24
2022-10-04T09:03:51.257Z,16.32
2022-10-04T09:04:51.278Z,16.51
2022-10-04T09:05:51.274Z,16.98
2022-10-04T09:06:51.275Z,17.46
2022-10-04T09:07:51.283Z,17.80
2022-10-04T09:08:51.308Z,18.10
2022-10-04T09:09:51.305Z,18.13
2022-10-04T09:10:51.293Z,18.18
2022-10-04T09:11:51.293Z,18.42
2022-10-04T09:12:51.306Z,18.67
2022-10-04T09:13:51.292Z,18.93
2022-10-04T09:14:51.347Z,19.26
2022-10-04T09:15:51.446Z,19.57
2022-10-04T09:16:51.300Z,19.85
2022-10-04T09:17:51.308Z,20.22
2022-10-04T09:18:51.304Z,20.63
2022-10-04T09:19:51.314Z,20.97
2022-10-04T09:20:51.364Z,21.37
2022-10-04T09:21:51.300Z,21.71
2022-10-04T09:22:51.317Z,21.75
2022-10-04T09:23:51.323Z,21.89
2022-10-04T09:24:51.324Z,21.90
2022-10-04T09:25:51.313Z,22.03
2022-10-04T09:26:51.394Z,22.15
2022-10-04T09:27:55.035Z,22.05
2022-10-04T09:28:51.315Z,21.96
2022-10-04T09:29:51.325Z,21.87
2022-10-04T09:30:52.414Z,21.78
2022-10-04T09:31:51.347Z,21.67
2022-10-04T09:32:51.366Z,21.52
2022-10-04T09:33:51.346Z,21.33
2022-10-04T09:34:51.346Z,21.14
2022-10-04T09:35:51.361Z,21.03
2022-10-04T09:36:51.348Z,21.01
2022-10-04T09:37:51.363Z,21.06
2022-10-04T09:39:01.236Z,21.12
2022-10-04T09:39:51.361Z,21.00
2022-10-04T09:40:51.375Z,20.96
2022-10-04T09:41:51.357Z,20.89
2022-10-04T09:42:51.362Z,20.80
2022-10-04T09:43:51.362Z,20.68
2022-10-04T09:44:51.411Z,20.56
2022-10-04T09:45:51.370Z,20.57
2022-10-04T09:46:56.182Z,20.41
2022-10-04T09:47:51.374Z,20.42
2022-10-04T09:48:51.380Z,20.52
2022-10-04T09:49:51.402Z,20.62
2022-10-04T09:50:51.423Z,20.69
2022-10-04T09:51:51.400Z,20.74
2022-10-04T09:52:51.392Z,20.80
2022-10-04T09:53:51.389Z,20.90
2022-10-04T09:54:51.399Z,20.98
2022-10-04T09:55:51.386Z,21.03
2022-10-04T09:56:51.429Z,21.08
2022-10-04T09:57:51.386Z,21.14
2022-10-04T09:58:51.408Z,21.22
2022-10-04T09:59:51.393Z,21.29
2022-10-04T10:00:51.420Z,21.32
2022-10-04T10:01:51.497Z,21.36
2022-10-04T10:02:51.513Z,21.40
2022-10-04T10:03:51.429Z,21.37
2022-10-04T10:04:51.406Z,21.40
2022-10-04T10:05:51.426Z,21.42
2022-10-04T10:06:51.428Z,21.45
2022-10-04T10:07:52.656Z,21.46
2022-10-04T10:09:51.431Z,21.45
2022-10-04T10:10:51.440Z,21.46
2022-10-04T10:11:51.440Z,21.50
2022-10-04T10:12:51.418Z,21.53
2022-10-04T10:13:51.463Z,21.57
2022-10-04T10:14:51.449Z,21.60
2022-10-04T10:15:51.459Z,21.46
2022-10-04T10:16:51.444Z,21.40
2022-10-04T10:17:51.453Z,20.95
2022-10-04T10:18:51.842Z,20.72
2022-10-04T10:19:51.496Z,20.68
2022-10-04T10:20:51.469Z,20.66
2022-10-04T10:21:51.476Z,20.67
2022-10-04T10:22:51.479Z,20.74
2022-10-04T10:23:51.450Z,20.73
2022-10-04T10:24:54.856Z,20.66
2022-10-04T10:25:51.520Z,20.65
2022-10-04T10:26:51.485Z,20.62
2022-10-04T10:27:51.586Z,20.59
2022-10-04T10:28:51.480Z,20.61
2022-10-04T10:29:51.487Z,20.67
2022-10-04T10:30:51.552Z,20.77
2022-10-04T10:31:51.598Z,20.86
2022-10-04T10:32:51.509Z,20.98
2022-10-04T10:33:51.499Z,21.10
2022-10-04T10:34:51.500Z,21.14
2022-10-04T10:35:51.513Z,20.97
2022-10-04T10:36:51.503Z,20.66
2022-10-04T10:37:51.546Z,20.27
2022-10-04T10:38:51.530Z,20.08
2022-10-04T10:39:51.522Z,19.68
2022-10-04T10:40:51.518Z,19.65
2022-10-04T10:41:51.529Z,19.41
2022-10-04T10:43:51.554Z,19.49
2022-10-04T10:44:52.864Z,19.61
2022-10-04T10:45:51.535Z,19.73
2022-10-04T10:46:51.570Z,19.84
2022-10-04T10:47:51.543Z,19.93
2022-10-04T10:48:51.536Z,19.94
2022-10-04T10:49:51.569Z,19.97
2022-10-04T10:50:51.559Z,20.02
2022-10-04T10:51:51.542Z,20.06
2022-10-04T10:52:51.565Z,20.10
2022-10-04T10:53:51.529Z,20.08
2022-10-04T10:54:51.559Z,20.03
2022-10-04T10:55:51.594Z,20.04
2022-10-04T10:56:51.556Z,20.09
2022-10-04T10:57:51.571Z,20.14
2022-10-04T10:58:51.550Z,20.24
2022-10-04T10:59:51.565Z,20.37
2022-10-04T11:00:51.570Z,20.47
2022-10-04T11:01:51.738Z,20.55
2022-10-04T11:02:51.681Z,20.58
2022-10-04T11:03:51.723Z,20.62
2022-10-04T11:04:51.590Z,20.66
2022-10-04T11:05:51.572Z,20.72
2022-10-04T11:06:51.551Z,20.74
2022-10-04T11:08:51.592Z,20.70
2022-10-04T11:09:51.581Z,20.65
2022-10-04T11:10:52.101Z,20.64
2022-10-04T11:11:51.570Z,20.62
2022-10-04T11:12:51.609Z,20.63
2022-10-04T11:13:51.599Z,20.64
2022-10-04T11:15:51.731Z,20.60
2022-10-04T11:16:51.595Z,20.56
2022-10-04T11:17:51.622Z,20.54
2022-10-04T11:18:51.611Z,20.58
2022-10-04T11:19:51.594Z,20.61
2022-10-04T11:20:51.613Z,20.67
2022-10-04T11:21:53.160Z,20.71
2022-10-04T11:22:51.613Z,20.74
2022-10-04T11:23:51.615Z,20.77
2022-10-04T11:24:51.601Z,20.78
2022-10-04T11:25:51.632Z,20.81
2022-10-04T11:26:51.652Z,20.85
2022-10-04T11:27:54.382Z,20.87
2022-10-04T11:28:51.622Z,20.83
2022-10-04T11:29:51.629Z,20.81
2022-10-04T11:30:51.720Z,20.80
2022-10-04T11:31:51.648Z,20.81
2022-10-04T11:32:51.643Z,20.86
2022-10-04T11:33:51.677Z,20.87
2022-10-04T11:34:51.641Z,20.67
2022-10-04T11:35:51.643Z,20.61
2022-10-04T11:36:51.643Z,20.60
2022-10-04T11:37:51.641Z,20.63
2022-10-04T11:38:51.675Z,20.67
2022-10-04T11:40:51.676Z,20.63
2022-10-04T11:41:51.644Z,20.67
2022-10-04T11:42:51.646Z,20.71
2022-10-04T11:43:51.671Z,20.75
2022-10-04T11:44:51.667Z,20.80
2022-10-04T11:45:51.685Z,20.85
2022-10-04T11:46:51.901Z,20.86
2022-10-04T11:47:51.677Z,20.83
2022-10-04T11:48:51.681Z,20.73
2022-10-04T11:49:51.682Z,20.51
2022-10-04T11:50:51.698Z,20.26
2022-10-04T11:51:51.672Z,20.18
2022-10-04T11:52:51.790Z,20.20
2022-10-04T11:53:51.753Z,20.27
2022-10-04T11:54:51.710Z,20.23
2022-10-04T11:55:51.723Z,19.93
2022-10-04T11:56:51.686Z,19.90
2022-10-04T11:57:51.707Z,19.89
2022-10-04T11:58:53.473Z,19.92
2022-10-04T11:59:51.744Z,19.94
2022-10-04T12:00:51.760Z,19.93
2022-10-04T12:01:51.720Z,19.90
2022-10-04T12:02:51.724Z,19.91
2022-10-04T12:03:52.028Z,19.88
2022-10-04T12:05:51.810Z,19.95
2022-10-04T12:06:51.720Z,19.62
2022-10-04T12:07:51.772Z,19.47
2022-10-04T12:08:51.759Z,19.53
2022-10-04T12:09:51.770Z,19.64
2022-10-04T12:10:51.774Z,19.78
2022-10-04T12:11:51.784Z,19.92
2022-10-04T12:12:51.744Z,20.01
2022-10-04T12:13:51.780Z,20.12
2022-10-04T12:14:51.767Z,20.25
2022-10-04T12:15:51.813Z,20.37
2022-10-04T12:16:51.780Z,20.46
2022-10-04T12:17:51.807Z,20.57
2022-10-04T12:18:51.759Z,20.66
2022-10-04T12:19:51.782Z,20.70
2022-10-04T12:20:51.784Z,20.68
2022-10-04T12:21:51.783Z,20.71
2022-10-04T12:23:51.839Z,20.67
2022-10-04T12:24:51.792Z,20.66
2022-10-04T12:25:51.786Z,20.69
2022-10-04T12:26:51.802Z,20.70
2022-10-04T12:27:51.843Z,20.69
2022-10-04T12:28:51.791Z,20.72
2022-10-04T12:29:51.827Z,20.77
2022-10-04T12:30:51.808Z,20.82
2022-10-04T12:31:51.835Z,20.79
2022-10-04T12:32:56.902Z,20.78
2022-10-04T12:34:51.826Z,20.80
2022-10-04T12:35:53.714Z,20.82
2022-10-04T12:36:51.830Z,20.85
2022-10-04T12:37:51.794Z,20.89
2022-10-04T12:38:51.818Z,20.92
2022-10-04T12:39:51.806Z,20.91
2022-10-04T12:40:51.835Z,20.88
2022-10-04T12:41:51.884Z,20.86
2022-10-04T12:42:51.836Z,20.81
2022-10-04T12:44:51.861Z,20.74
2022-10-04T12:45:51.904Z,20.69
2022-10-04T12:46:51.845Z,20.62
2022-10-04T12:47:51.867Z,20.59
2022-10-04T12:49:51.846Z,20.62
2022-10-04T12:50:51.844Z,20.64
2022-10-04T12:51:51.841Z,20.63
2022-10-04T12:52:51.849Z,20.56
2022-10-04T12:54:51.885Z,20.58
2022-10-04T12:55:51.845Z,20.60
2022-10-04T12:57:51.863Z,20.53
2022-10-04T12:58:51.864Z,20.52
2022-10-04T12:59:51.889Z,20.54
2022-10-04T13:00:51.947Z,20.59
2022-10-04T13:01:51.950Z,20.65
2022-10-04T13:02:51.873Z,20.73
2022-10-04T13:03:51.872Z,20.80
2022-10-04T13:04:51.858Z,20.86
2022-10-04T13:05:51.879Z,20.90
2022-10-04T13:06:51.958Z,20.96
2022-10-04T13:07:51.872Z,20.99
2022-10-04T13:10:19.333Z,21.00
2022-10-04T13:10:51.905Z,21.03
2022-10-04T13:11:51.896Z,21.06
2022-10-04T13:12:53.995Z,21.07
2022-10-04T13:13:51.908Z,21.05
2022-10-04T13:14:51.894Z,20.98
2022-10-04T13:17:51.906Z,20.88
2022-10-04T13:18:51.951Z,20.85
2022-10-04T13:19:51.917Z,20.77
2022-10-04T13:21:51.924Z,20.79
2022-10-04T13:22:56.918Z,20.84
2022-10-04T13:23:51.938Z,20.87
2022-10-04T13:24:51.966Z,20.93
2022-10-04T13:25:51.958Z,20.95
2022-10-04T13:26:51.931Z,20.98
2022-10-04T13:27:52.001Z,21.02
2022-10-04T13:28:51.948Z,21.06
2022-10-04T13:29:51.962Z,21.11
2022-10-04T13:30:51.961Z,21.14
2022-10-04T13:31:52.108Z,21.16
2022-10-04T13:32:51.957Z,21.18
2022-10-04T13:33:51.951Z,21.16
2022-10-04T13:34:51.943Z,21.14
2022-10-04T13:35:51.939Z,21.12
2022-10-04T13:38:52.027Z,21.04
2022-10-04T13:39:51.973Z,20.93
2022-10-04T13:41:51.991Z,20.98
2022-10-04T13:42:51.982Z,20.99
2022-10-04T13:43:51.973Z,20.94
2022-10-04T13:44:52.027Z,20.89
2022-10-04T13:45:52.043Z,20.84
2022-10-04T13:47:51.981Z,20.86
2022-10-04T13:48:52.003Z,20.88
2022-10-04T13:49:54.279Z,20.87
2022-10-04T13:50:52.001Z,20.90
2022-10-04T13:51:52.007Z,20.94
2022-10-04T13:52:52.009Z,20.97
2022-10-04T13:53:54.143Z,21.00
2022-10-04T13:54:52.014Z,21.02
2022-10-04T13:55:52.106Z,21.04
2022-10-04T13:56:51.989Z,21.00
2022-10-04T13:57:52.015Z,20.97
2022-10-04T13:58:52.007Z,20.95
2022-10-04T13:59:52.025Z,20.93
2022-10-04T14:00:52.097Z,20.95
2022-10-04T14:02:52.129Z,20.96
2022-10-04T14:03:52.018Z,20.95
2022-10-04T14:04:52.014Z,20.91
2022-10-04T14:05:52.007Z,20.89
2022-10-04T14:06:52.026Z,20.88
2022-10-04T14:07:52.049Z,20.86
2022-10-04T14:09:52.060Z,20.88
2022-10-04T14:10:52.042Z,20.90
2022-10-04T14:11:52.057Z,20.92
2022-10-04T14:12:52.056Z,20.91
2022-10-04T14:13:52.033Z,20.84
2022-10-04T14:14:52.057Z,20.81
2022-10-04T14:15:52.110Z,20.79
2022-10-04T14:17:52.079Z,20.74
2022-10-04T14:18:52.070Z,20.58
2022-10-04T14:19:52.073Z,20.35
2022-10-04T14:20:52.064Z,20.28
2022-10-04T14:21:52.100Z,19.99
2022-10-04T14:22:52.069Z,19.92
2022-10-04T14:23:52.082Z,19.75
2022-10-04T14:24:52.077Z,19.49
2022-10-04T14:25:52.109Z,19.35
2022-10-04T14:26:54.507Z,19.40
2022-10-04T14:27:52.131Z,19.25
2022-10-04T14:28:52.095Z,19.19
2022-10-04T14:29:52.078Z,19.21
2022-10-04T14:30:52.096Z,19.20
2022-10-04T14:31:52.173Z,19.26
2022-10-04T14:32:52.133Z,19.37
2022-10-04T14:33:52.102Z,19.48
2022-10-04T14:34:52.116Z,19.63
2022-10-04T14:35:52.104Z,19.76
2022-10-04T14:36:52.113Z,19.79
2022-10-04T14:37:52.194Z,19.84
2022-10-04T14:38:52.132Z,19.95
2022-10-04T14:39:52.133Z,20.03
2022-10-04T14:40:52.139Z,19.96
2022-10-04T14:41:52.125Z,19.85
2022-10-04T14:42:52.153Z,19.63
2022-10-04T14:43:52.176Z,19.56
2022-10-04T14:45:52.241Z,19.64
2022-10-04T14:46:52.156Z,19.73
2022-10-04T14:47:52.137Z,19.68
2022-10-04T14:49:53.951Z,19.66
2022-10-04T14:50:52.141Z,19.63
2022-10-04T14:51:52.142Z,19.65
2022-10-04T14:52:52.173Z,19.68
2022-10-04T14:53:52.170Z,19.75
2022-10-04T14:55:52.207Z,19.68
2022-10-04T14:56:52.166Z,19.72
2022-10-04T14:57:52.191Z,19.76
2022-10-04T14:58:52.192Z,19.82
2022-10-04T14:59:52.174Z,19.88
2022-10-04T15:00:52.260Z,19.95
2022-10-04T15:01:52.215Z,20.01
2022-10-04T15:02:52.192Z,20.04
2022-10-04T15:03:54.764Z,20.06
2022-10-04T15:04:52.205Z,19.98
2022-10-04T15:05:52.191Z,19.96
2022-10-04T15:06:52.193Z,19.94
2022-10-04T15:07:52.243Z,19.91
2022-10-04T15:08:52.193Z,19.92
2022-10-04T15:09:52.192Z,19.87
2022-10-04T15:10:52.215Z,19.82
2022-10-04T15:12:14.386Z,19.79
2022-10-04T15:13:11.224Z,19.78
2022-10-04T15:13:52.243Z,19.69
2022-10-04T15:14:52.209Z,19.68
2022-10-04T15:15:52.317Z,19.70